Time;durP1;ratioP1;P1;durP2;ratioP2;P2;SDS_P1;SDS_P2;PMS_P1;PMS_P2;Temp;Humidity;BMP_temperature;BMP_pressure;BME280_temperature;BME280_humidity;BME280_pressure;Samples;Min_cycle;Max_cycle;Signal;HPM_P1;HPM_P2
2023/01/24 10:40:24;;;;;;;22.00;16.03;;;21.10;41.50;;;;;;5065143;27;20548;-40
2023/01/24 10:42:50;;;;;;;20.67;15.70;;;10.60;34.00;;;;;;5075715;28;20247;-43
2023/01/24 10:45:17;;;;;;;22.43;16.50;;;6.80;46.00;;;;;;5094780;28;20206;-47
2023/01/24 10:47:43;;;;;;;21.63;15.93;;;5.10;52.10;;;;;;5099226;28;20214;-44
2023/01/24 10:50:10;;;;;;;24.17;16.77;;;4.50;54.50;;;;;;5089993;28;20685;-43
2023/01/24 10:52:36;;;;;;;24.27;18.60;;;4.00;57.10;;;;;;5097299;28;20303;-42
2023/01/24 10:55:03;;;;;;;23.07;17.00;;;3.90;58.50;;;;;;5094037;28;20197;-49
2023/01/24 10:57:29;;;;;;;23.13;17.27;;;3.70;58.90;;;;;;5088130;28;20211;-41
2023/01/24 10:59:56;;;;;;;26.70;17.60;;;3.80;59.30;;;;;;5087035;28;20218;-42
2023/01/24 11:02:22;;;;;;;23.93;16.83;;;3.40;61.70;;;;;;5098634;28;20202;-40
2023/01/24 11:04:49;;;;;;;26.70;17.37;;;3.40;61.40;;;;;;5094565;28;20217;-43
2023/01/24 11:07:15;;;;;;;24.33;17.60;;;3.50;62.30;;;;;;5089644;28;20301;-49
2023/01/24 11:09:42;;;;;;;26.53;17.40;;;3.40;62.90;;;;;;5089750;28;20683;-48
2023/01/24 11:12:08;;;;;;;25.13;17.67;;;3.60;61.30;;;;;;5090838;28;20539;-39
2023/01/24 11:14:35;;;;;;;24.47;16.80;;;3.40;62.20;;;;;;5092380;28;20299;-41
2023/01/24 11:17:02;;;;;;;25.53;16.20;;;3.60;62.30;;;;;;5097336;28;20209;-43
2023/01/24 11:19:28;;;;;;;23.40;17.00;;;3.50;62.30;;;;;;5101986;28;20196;-46
2023/01/24 11:21:54;;;;;;;23.73;15.73;;;3.60;62.00;;;;;;5099916;28;20211;-45
2023/01/24 11:24:21;;;;;;;23.90;16.77;;;3.40;62.50;;;;;;5095235;28;20579;-44
2023/01/24 11:26:51;;;;;;;25.00;16.53;;;3.10;63.10;;;;;;5094056;28;20200;-47
2023/01/24 11:29:18;;;;;;;22.93;15.33;;;3.20;64.30;;;;;;5094455;28;20229;-42
2023/01/24 11:31:44;;;;;;;25.10;15.77;;;3.20;64.50;;;;;;5072085;28;20723;-39
2023/01/24 11:34:11;;;;;;;25.43;16.90;;;3.30;64.30;;;;;;5093183;28;20227;-39
2023/01/24 11:36:37;;;;;;;19.77;14.57;;;3.40;64.10;;;;;;5096220;28;20203;-41
2023/01/24 11:39:04;;;;;;;21.90;15.63;;;3.50;63.00;;;;;;5093291;28;20374;-45
2023/01/24 11:41:31;;;;;;;20.43;15.67;;;3.40;63.80;;;;;;5090921;28;20213;-47
2023/01/24 11:43:57;;;;;;;20.83;14.83;;;3.30;63.20;;;;;;5089680;28;20232;-40
2023/01/24 11:46:23;;;;;;;19.23;14.50;;;3.30;64.40;;;;;;5091393;28;20223;-37
2023/01/24 11:48:50;;;;;;;23.53;15.13;;;3.50;62.30;;;;;;5097135;28;20596;-38
2023/01/24 11:51:16;;;;;;;18.87;13.90;;;3.50;63.10;;;;;;5084024;28;20220;-40
2023/01/24 11:53:43;;;;;;;20.83;14.73;;;3.60;61.60;;;;;;5080521;28;20224;-43
2023/01/24 11:56:09;;;;;;;19.93;14.83;;;3.60;62.00;;;;;;5079570;28;20656;-45
2023/01/24 11:58:36;;;;;;;20.33;14.47;;;3.70;61.60;;;;;;5079125;28;20223;-45
2023/01/24 12:01:02;;;;;;;19.03;15.33;;;3.80;61.70;;;;;;5079116;28;20209;-49
2023/01/24 12:03:29;;;;;;;21.03;14.30;;;3.90;61.40;;;;;;5075712;28;20253;-49
2023/01/24 12:05:56;;;;;;;19.50;14.23;;;3.90;59.80;;;;;;5082535;28;20739;-44
2023/01/24 12:08:22;;;;;;;21.40;14.00;;;3.70;61.30;;;;;;5091287;28;20200;-47
2023/01/24 12:10:48;;;;;;;19.20;14.77;;;3.90;60.30;;;;;;5087885;28;20198;-48
2023/01/24 12:13:15;;;;;;;19.97;14.80;;;3.80;61.10;;;;;;5074807;28;20234;-45
2023/01/24 12:15:42;;;;;;;20.73;13.57;;;3.60;60.20;;;;;;5073966;28;20387;-47
2023/01/24 12:18:10;;;;;;;19.17;14.60;;;3.80;60.90;;;;;;5075044;28;20250;-49
2023/01/24 12:20:37;;;;;;;18.60;13.63;;;3.80;60.30;;;;;;5083988;28;20337;-49
2023/01/24 12:23:03;;;;;;;19.10;13.00;;;3.60;61.40;;;;;;5079021;28;20283;-48
2023/01/24 12:25:30;;;;;;;17.73;13.80;;;3.90;60.80;;;;;;5074826;28;20228;-48
2023/01/24 12:27:56;;;;;;;15.47;12.40;;;3.90;61.10;;;;;;5083135;28;20288;-45
2023/01/24 12:30:23;;;;;;;17.13;13.27;;;3.90;60.60;;;;;;5084846;28;20241;-48
2023/01/24 12:32:49;;;;;;;19.43;14.03;;;3.90;60.30;;;;;;5082636;28;20220;-47
2023/01/24 12:35:17;;;;;;;19.57;13.83;;;3.70;60.50;;;;;;5086052;28;20215;-45
2023/01/24 12:37:44;;;;;;;18.63;14.30;;;3.80;61.80;;;;;;5083618;28;20287;-46
2023/01/24 12:40:10;;;;;;;19.43;15.20;;;3.90;61.00;;;;;;5083695;28;20637;-46
2023/01/24 12:42:37;;;;;;;20.10;14.70;;;3.80;60.60;;;;;;5076925;28;20248;-45
2023/01/24 12:45:03;;;;;;;17.07;13.47;;;3.80;60.70;;;;;;5079961;28;20679;-48
2023/01/24 12:47:30;;;;;;;15.77;12.83;;;3.80;60.90;;;;;;5088775;28;20204;-47
2023/01/24 12:49:57;;;;;;;19.70;13.47;;;3.90;60.60;;;;;;5090019;28;21335;-46
2023/01/24 12:52:24;;;;;;;16.97;14.13;;;4.00;59.90;;;;;;5092493;28;20311;-45
2023/01/24 12:54:50;;;;;;;19.20;13.20;;;3.80;60.40;;;;;;5078980;28;20201;-45
2023/01/24 12:57:16;;;;;;;18.30;13.60;;;3.80;60.50;;;;;;5070433;28;20213;-45
2023/01/24 12:59:43;;;;;;;20.53;15.43;;;4.00;60.70;;;;;;5072649;28;20201;-44
2023/01/24 13:02:09;;;;;;;22.23;14.93;;;3.80;60.00;;;;;;5075556;28;20227;-44
2023/01/24 13:04:36;;;;;;;21.20;14.90;;;3.80;61.70;;;;;;5077691;28;20204;-45
2023/01/24 13:07:02;;;;;;;20.33;14.17;;;3.70;61.70;;;;;;5080753;28;20200;-48
2023/01/24 13:09:29;;;;;;;15.43;12.90;;;3.60;62.30;;;;;;5090778;28;20220;-49
2023/01/24 13:11:55;;;;;;;21.33;15.77;;;3.70;61.70;;;;;;5085805;28;20220;-47
2023/01/24 13:14:22;;;;;;;21.70;16.47;;;3.70;61.10;;;;;;5070479;28;20207;-47
2023/01/24 13:16:48;;;;;;;18.80;15.37;;;3.60;61.10;;;;;;5085242;28;20207;-45
2023/01/24 13:19:15;;;;;;;18.17;14.53;;;3.40;62.20;;;;;;5085870;28;20278;-44
2023/01/24 13:21:41;;;;;;;20.73;16.00;;;3.60;62.60;;;;;;5089855;28;20641;-46
2023/01/24 13:24:07;;;;;;;23.13;16.87;;;3.70;62.00;;;;;;5089224;28;20558;-47
2023/01/24 13:26:34;;;;;;;23.67;15.70;;;3.70;62.10;;;;;;5077460;28;20194;-45
2023/01/24 13:29:01;;;;;;;19.77;15.97;;;3.40;62.20;;;;;;5077162;28;20652;-47
2023/01/24 13:31:27;;;;;;;22.10;15.30;;;3.60;62.70;;;;;;5084062;28;20706;-48
2023/01/24 13:33:54;;;;;;;22.73;16.00;;;3.70;62.40;;;;;;5082794;28;20209;-49
2023/01/24 13:36:20;;;;;;;20.10;15.47;;;3.70;61.70;;;;;;5078918;28;20208;-47
2023/01/24 13:38:47;;;;;;;21.70;16.10;;;3.70;62.40;;;;;;5076705;28;20216;-51
2023/01/24 13:41:13;;;;;;;22.47;15.83;;;3.50;62.70;;;;;;5070506;28;20297;-51
2023/01/24 13:43:40;;;;;;;25.33;17.97;;;3.50;63.90;;;;;;5073567;28;20205;-46
2023/01/24 13:46:06;;;;;;;23.73;17.10;;;3.60;62.30;;;;;;5076936;28;20258;-48
2023/01/24 13:48:33;;;;;;;26.53;18.43;;;3.70;61.70;;;;;;5079355;28;20233;-49
2023/01/24 13:50:59;;;;;;;25.37;17.47;;;3.50;61.80;;;;;;5077318;28;20236;-50
2023/01/24 13:53:26;;;;;;;27.37;16.93;;;3.50;63.40;;;;;;5069032;28;21044;-47
2023/01/24 13:55:52;;;;;;;26.13;17.03;;;3.50;62.50;;;;;;5074666;28;20199;-46
2023/01/24 13:58:19;;;;;;;23.83;17.03;;;3.70;62.40;;;;;;5074337;28;20747;-48
2023/01/24 14:00:45;;;;;;;25.20;16.20;;;3.60;62.40;;;;;;5089329;28;20238;-48
2023/01/24 14:03:11;;;;;;;26.57;16.60;;;3.60;63.00;;;;;;5076551;28;20197;-49
2023/01/24 14:05:38;;;;;;;19.50;15.17;;;3.60;62.30;;;;;;5080105;28;20204;-46
2023/01/24 14:08:05;;;;;;;23.50;15.97;;;3.70;62.90;;;;;;5086957;28;20205;-45
2023/01/24 14:10:31;;;;;;;23.27;16.03;;;3.70;62.50;;;;;;5030322;28;20233;-49
2023/01/24 14:12:58;;;;;;;27.07;16.77;;;3.70;62.50;;;;;;5035551;28;20202;-45
2023/01/24 15:58:12;;;;;;;4.27;3.63;;;;;;;;;;6042983;22;1958546;-23
2023/01/24 17:39:30;;;;;;;13.50;12.10;;;20.70;44.40;;;;;;6140171;23;20581;-51
2023/01/24 17:41:56;;;;;;;13.60;11.73;;;15.80;26.40;;;;;;6151177;23;20186;-55
2023/01/24 17:44:22;;;;;;;15.90;13.57;;;7.50;44.30;;;;;;6150666;23;20207;-52
2023/01/24 17:46:49;;;;;;;16.93;14.23;;;5.00;53.20;;;;;;6151345;23;20204;-50
2023/01/24 17:49:15;;;;;;;18.13;14.13;;;4.00;58.20;;;;;;6151234;23;20217;-53
2023/01/24 17:51:42;;;;;;;17.33;14.20;;;3.50;62.80;;;;;;6152196;23;20197;-52
2023/01/24 17:54:08;;;;;;;16.93;13.40;;;3.30;64.40;;;;;;6151824;23;20185;-53
2023/01/24 17:56:35;;;;;;;19.63;14.80;;;3.20;66.30;;;;;;6108908;23;20215;-52
2023/01/24 17:59:02;;;;;;;17.63;14.20;;;3.10;66.80;;;;;;6151244;23;20547;-50
2023/01/24 18:01:28;;;;;;;19.67;14.73;;;3.00;67.70;;;;;;6151997;23;20182;-54
2023/01/24 18:03:54;;;;;;;21.10;14.87;;;2.90;68.40;;;;;;6151799;23;20240;-51
2023/01/24 18:06:21;;;;;;;22.27;16.27;;;2.80;68.80;;;;;;6151249;23;20199;-54
2023/01/24 18:08:47;;;;;;;19.77;14.73;;;2.70;70.60;;;;;;6151217;23;20179;-54
2023/01/24 18:11:14;;;;;;;20.20;15.33;;;2.60;71.40;;;;;;6150896;23;20332;-54
2023/01/24 18:13:41;;;;;;;20.53;14.97;;;2.80;71.20;;;;;;6153099;23;20511;-53
2023/01/24 18:16:07;;;;;;;23.20;15.43;;;2.70;71.60;;;;;;6151752;23;20195;-54
2023/01/24 18:18:34;;;;;;;21.00;15.03;;;2.60;71.80;;;;;;6147731;23;20185;-52
2023/01/24 18:21:00;;;;;;;23.20;15.47;;;2.70;72.00;;;;;;6151709;23;20178;-50
2023/01/24 18:23:27;;;;;;;25.77;17.27;;;2.60;71.60;;;;;;6150919;23;20210;-48
2023/01/24 18:25:53;;;;;;;24.27;16.90;;;2.70;71.90;;;;;;6151080;23;20212;-52
2023/01/24 18:28:20;;;;;;;23.13;15.87;;;2.60;73.30;;;;;;6150952;23;20190;-53
2023/01/24 18:30:46;;;;;;;22.30;16.07;;;2.60;72.00;;;;;;6149854;23;20183;-51
2023/01/24 18:33:13;;;;;;;24.23;16.37;;;2.70;72.20;;;;;;6152480;23;20181;-52
2023/01/24 18:35:39;;;;;;;21.97;16.17;;;2.80;71.20;;;;;;6153004;23;20280;-53
2023/01/24 18:38:05;;;;;;;22.43;15.60;;;2.80;70.60;;;;;;6150076;23;20214;-51
2023/01/24 18:40:32;;;;;;;23.07;16.37;;;2.70;70.90;;;;;;6150695;23;20202;-52
2023/01/24 18:42:58;;;;;;;23.40;16.50;;;2.70;71.80;;;;;;6151391;23;20225;-55
2023/01/24 18:45:25;;;;;;;22.03;15.27;;;2.80;71.00;;;;;;6151363;23;20202;-53
2023/01/24 18:47:51;;;;;;;23.63;16.10;;;2.70;71.30;;;;;;6150140;23;20455;-53
2023/01/24 18:50:18;;;;;;;24.40;17.27;;;2.70;71.70;;;;;;6150213;23;20584;-54
2023/01/24 18:52:44;;;;;;;23.70;17.57;;;2.60;72.60;;;;;;6149069;23;20170;-51
2023/01/24 18:55:11;;;;;;;22.30;16.87;;;2.70;72.70;;;;;;6149502;23;20414;-52
2023/01/24 18:57:38;;;;;;;23.47;17.33;;;2.70;72.30;;;;;;6152774;23;20454;-54
2023/01/24 19:00:04;;;;;;;25.13;17.17;;;2.80;71.50;;;;;;6150081;23;20561;-50
2023/01/24 19:02:31;;;;;;;23.63;16.37;;;2.60;71.80;;;;;;6150786;23;20598;-53
2023/01/24 19:04:59;;;;;;;22.00;15.87;;;2.70;72.40;;;;;;6151480;23;20219;-53
2023/01/24 19:07:25;;;;;;;23.07;16.37;;;2.60;72.30;;;;;;6149426;23;20634;-53
2023/01/24 19:09:52;;;;;;;22.07;16.60;;;2.60;73.10;;;;;;6150336;23;20257;-53
2023/01/24 19:12:18;;;;;;;28.57;17.70;;;2.50;73.10;;;;;;6151808;23;20186;-52
2023/01/24 19:14:45;;;;;;;29.23;19.27;;;2.60;73.00;;;;;;6150812;23;20209;-53
2023/01/24 19:17:11;;;;;;;26.80;17.43;;;2.60;73.80;;;;;;6152819;23;20178;-52
2023/01/24 19:19:38;;;;;;;24.17;17.63;;;2.60;73.50;;;;;;6151775;23;20319;-53
2023/01/24 19:22:08;;;;;;;27.77;17.70;;;2.60;72.90;;;;;;6149607;23;20186;-55
2023/01/24 19:24:34;;;;;;;27.83;17.87;;;2.60;73.60;;;;;;6148527;23;20292;-55
2023/01/24 19:27:01;;;;;;;27.80;17.10;;;2.60;73.60;;;;;;6150679;23;20594;-52
2023/01/24 19:29:29;;;;;;;27.10;18.37;;;2.70;74.90;;;;;;6150959;23;20210;-53
2023/01/24 19:31:55;;;;;;;26.57;18.33;;;2.60;73.70;;;;;;6149851;23;20236;-49
2023/01/24 19:34:22;;;;;;;26.07;17.07;;;2.50;75.00;;;;;;6153164;23;20202;-52
2023/01/24 19:36:48;;;;;;;26.43;18.07;;;2.50;74.80;;;;;;6149539;23;20204;-53
2023/01/24 19:39:15;;;;;;;28.07;18.23;;;2.50;75.10;;;;;;6151923;23;20193;-54
2023/01/24 19:41:41;;;;;;;28.10;18.63;;;2.50;75.20;;;;;;6151051;23;20178;-52
2023/01/24 19:44:07;;;;;;;27.53;18.63;;;2.50;75.20;;;;;;6152096;23;20254;-55
2023/01/24 19:46:34;;;;;;;25.33;17.50;;;2.50;75.80;;;;;;6133648;23;20558;-43
2023/01/24 19:49:01;;;;;;;29.43;18.33;;;2.50;75.60;;;;;;6147241;23;20190;-44
2023/01/24 19:51:28;;;;;;;25.47;18.13;;;2.50;75.40;;;;;;6152002;23;20276;-42
2023/01/24 19:53:54;;;;;;;26.50;17.83;;;2.50;76.20;;;;;;6151443;23;20201;-41
2023/01/24 19:56:21;;;;;;;30.33;19.07;;;2.30;77.00;;;;;;6150869;23;20606;-42
2023/01/24 19:58:47;;;;;;;33.13;19.17;;;2.30;78.90;;;;;;6151634;23;20207;-42
2023/01/24 20:01:14;;;;;;;26.73;18.30;;;2.30;79.00;;;;;;6150829;23;20182;-43
2023/01/24 20:03:41;;;;;;;29.43;18.47;;;2.30;78.90;;;;;;6151215;23;20225;-45
2023/01/24 20:06:07;;;;;;;27.80;18.67;;;2.30;79.70;;;;;;6149660;23;20709;-46
2023/01/24 20:08:34;;;;;;;30.07;19.40;;;2.30;81.80;;;;;;6151168;23;20188;-45
2023/01/24 20:11:01;;;;;;;30.30;19.10;;;2.30;81.40;;;;;;6150346;23;20613;-42
2023/01/24 20:13:27;;;;;;;30.50;18.97;;;2.30;81.30;;;;;;6147938;23;20235;-44
2023/01/24 20:15:54;;;;;;;25.00;16.73;;;2.30;80.90;;;;;;6150747;23;20198;-46
2023/01/24 20:18:21;;;;;;;26.47;18.20;;;2.20;80.80;;;;;;6151728;23;20551;-43
2023/01/24 20:20:47;;;;;;;29.83;18.37;;;2.20;81.70;;;;;;6152731;23;20186;-43
2023/01/24 20:23:14;;;;;;;26.60;18.37;;;2.30;83.20;;;;;;6151386;23;20182;-44
2023/01/24 20:25:40;;;;;;;26.17;17.20;;;2.30;81.80;;;;;;6152918;23;20229;-43
2023/01/24 20:28:07;;;;;;;27.20;17.43;;;2.40;82.90;;;;;;6153149;23;20182;-43
2023/01/24 20:30:33;;;;;;;27.70;18.63;;;2.40;82.10;;;;;;6154298;23;20236;-43
2023/01/24 20:33:00;;;;;;;30.63;19.90;;;2.30;82.90;;;;;;6152543;23;20185;-42
2023/01/24 20:35:27;;;;;;;28.47;18.97;;;2.30;84.00;;;;;;6153984;23;20252;-43
2023/01/24 20:37:55;;;;;;;27.93;19.30;;;2.30;85.40;;;;;;6150873;23;20187;-42
2023/01/24 20:40:21;;;;;;;33.27;19.30;;;2.10;86.70;;;;;;6154505;23;20187;-42
2023/01/24 20:42:48;;;;;;;32.53;21.27;;;2.10;87.30;;;;;;6153310;23;20239;-42
2023/01/24 20:45:14;;;;;;;36.37;21.10;;;2.10;88.00;;;;;;6152478;23;20608;-44
2023/01/24 20:47:41;;;;;;;39.37;22.70;;;2.10;88.40;;;;;;6150210;23;20194;-44
2023/01/24 20:50:07;;;;;;;38.80;21.53;;;2.20;90.50;;;;;;6151560;23;20182;-45
2023/01/24 20:52:34;;;;;;;37.73;21.37;;;2.20;90.00;;;;;;6153448;23;20185;-43
2023/01/24 20:55:00;;;;;;;29.63;20.27;;;2.20;90.50;;;;;;6153856;23;20181;-43
2023/01/24 20:57:27;;;;;;;34.83;21.63;;;2.10;90.00;;;;;;6153744;23;20259;-43
2023/01/24 20:59:54;;;;;;;28.03;18.70;;;2.10;88.90;;;;;;6152314;23;20244;-47
2023/01/24 21:02:20;;;;;;;28.83;18.10;;;2.10;88.50;;;;;;6154596;23;20601;-43
2023/01/24 21:04:47;;;;;;;30.90;18.63;;;2.10;88.50;;;;;;6151910;23;20231;-42
2023/01/24 21:07:13;;;;;;;26.53;17.60;;;2.10;87.10;;;;;;6150748;23;20176;-44
2023/01/24 21:09:40;;;;;;;25.87;16.33;;;2.10;84.60;;;;;;6152743;23;20205;-44
2023/01/24 21:12:06;;;;;;;21.07;14.10;;;2.10;84.20;;;;;;6151671;23;20660;-44
2023/01/24 21:14:33;;;;;;;22.57;14.90;;;2.10;81.40;;;;;;6153025;23;20188;-45
2023/01/24 21:17:00;;;;;;;22.37;15.43;;;2.10;82.50;;;;;;6152192;23;20206;-42
2023/01/24 21:19:26;;;;;;;23.67;15.37;;;2.10;81.70;;;;;;6150948;23;20187;-44
2023/01/24 21:21:55;;;;;;;19.53;13.63;;;2.10;81.60;;;;;;6152906;23;20192;-42
2023/01/24 21:24:22;;;;;;;21.60;14.00;;;2.10;80.90;;;;;;6154346;23;20241;-44
2023/01/24 21:26:48;;;;;;;23.73;15.57;;;2.20;80.80;;;;;;6150625;23;20224;-43
2023/01/24 21:29:16;;;;;;;22.30;14.77;;;2.10;81.00;;;;;;6152790;23;20251;-44
2023/01/24 21:31:43;;;;;;;22.37;14.00;;;2.20;81.10;;;;;;6152419;23;20181;-43
2023/01/24 21:34:09;;;;;;;19.57;14.37;;;2.20;78.90;;;;;;6153472;23;20189;-44
2023/01/24 21:36:36;;;;;;;18.83;14.67;;;2.30;80.40;;;;;;6151239;23;20264;-42
2023/01/24 21:39:03;;;;;;;23.03;15.03;;;2.20;80.50;;;;;;6153170;23;20188;-42
2023/01/24 21:44:13;;;;;;;23.40;14.80;;;2.20;80.40;;;;;;6153016;23;20287;-42
2023/01/24 21:46:39;;;;;;;20.80;14.90;;;2.20;79.80;;;;;;6150225;23;20209;-42
